createdAt,value
2023-11-08T00:01:54.789Z,100.00
2023-11-08T00:04:57.493Z,100.00
2023-11-08T00:08:00.295Z,100.00
2023-11-08T00:11:03.113Z,100.00
2023-11-08T00:14:12.207Z,100.00
2023-11-08T00:17:15.605Z,100.00
2023-11-08T00:20:18.451Z,100.00
2023-11-08T00:23:21.096Z,100.00
2023-11-08T00:26:23.879Z,100.00
2023-11-08T00:29:26.655Z,100.00
2023-11-08T00:32:29.548Z,100.00
2023-11-08T00:35:32.316Z,100.00
2023-11-08T00:38:35.101Z,100.00
2023-11-08T00:41:37.963Z,100.00
2023-11-08T00:44:40.681Z,100.00
2023-11-08T00:47:45.162Z,100.00
2023-11-08T00:50:48.335Z,100.00
2023-11-08T00:53:51.289Z,100.00
2023-11-08T00:56:57.371Z,100.00
2023-11-08T01:00:00.206Z,100.00
2023-11-08T01:03:03.113Z,100.00
2023-11-08T01:06:06.185Z,100.00
2023-11-08T01:09:10.081Z,100.00
2023-11-08T01:12:12.832Z,100.00
2023-11-08T01:15:15.873Z,100.00
2023-11-08T01:18:18.734Z,100.00
2023-11-08T01:21:22.354Z,100.00
2023-11-08T01:24:25.602Z,100.00
2023-11-08T01:27:28.492Z,100.00
2023-11-08T01:30:31.311Z,100.00
2023-11-08T01:33:34.367Z,100.00
2023-11-08T01:36:37.242Z,100.00
2023-11-08T01:39:39.968Z,100.00
2023-11-08T01:42:42.887Z,100.00
2023-11-08T01:45:45.705Z,100.00
2023-11-08T01:48:49.341Z,100.00
2023-11-08T01:51:53.348Z,100.00
2023-11-08T01:54:56.165Z,100.00
2023-11-08T01:58:00.403Z,100.00
2023-11-08T02:01:06.186Z,100.00
2023-11-08T02:04:09.060Z,100.00
2023-11-08T02:07:12.699Z,100.00
2023-11-08T02:10:15.794Z,100.00
2023-11-08T02:13:18.531Z,100.00
2023-11-08T02:16:21.233Z,100.00
2023-11-08T02:19:24.809Z,100.00
2023-11-08T02:22:29.108Z,100.00
2023-11-08T02:25:32.039Z,100.00
2023-11-08T02:28:37.585Z,100.00
2023-11-08T02:31:40.514Z,100.00
2023-11-08T02:34:43.192Z,100.00
2023-11-08T02:37:47.691Z,100.00
2023-11-08T02:40:50.584Z,100.00
2023-11-08T02:43:53.419Z,100.00
2023-11-08T02:46:56.312Z,100.00
2023-11-08T02:50:00.306Z,100.00
2023-11-08T02:53:03.842Z,100.00
2023-11-08T02:56:07.025Z,100.00
2023-11-08T02:59:10.194Z,100.00
2023-11-08T03:02:13.195Z,100.00
2023-11-08T03:05:25.279Z,100.00
2023-11-08T03:08:28.469Z,100.00
2023-11-08T03:11:31.144Z,100.00
2023-11-08T03:14:33.885Z,100.00
2023-11-08T03:17:37.690Z,100.00
2023-11-08T03:20:40.466Z,100.00
2023-11-08T03:23:43.275Z,100.00
2023-11-08T03:26:47.892Z,100.00
2023-11-08T03:29:50.562Z,100.00
2023-11-08T03:32:55.699Z,100.00
2023-11-08T03:35:58.441Z,100.00
2023-11-08T03:39:01.446Z,100.00
2023-11-08T03:42:07.187Z,100.00
2023-11-08T03:45:10.867Z,100.00
2023-11-08T03:48:13.794Z,100.00
2023-11-08T03:51:16.697Z,100.00
2023-11-08T03:54:20.217Z,100.00
2023-11-08T03:57:23.440Z,100.00
2023-11-08T04:00:28.019Z,100.00
2023-11-08T04:03:33.806Z,100.00
2023-11-08T04:06:37.991Z,100.00
2023-11-08T04:09:45.179Z,100.00
2023-11-08T04:12:47.898Z,100.00
2023-11-08T04:15:50.693Z,100.00
2023-11-08T04:18:53.688Z,100.00
2023-11-08T04:21:56.596Z,100.00
2023-11-08T04:24:59.337Z,100.00
2023-11-08T04:28:02.131Z,100.00
2023-11-08T04:31:04.968Z,100.00
2023-11-08T04:34:07.791Z,100.00
2023-11-08T04:37:13.264Z,100.00
2023-11-08T04:40:19.492Z,100.00
2023-11-08T04:43:22.579Z,100.00
2023-11-08T04:46:25.394Z,100.00
2023-11-08T04:49:29.332Z,100.00
2023-11-08T04:52:32.381Z,100.00
2023-11-08T04:55:35.379Z,100.00
2023-11-08T04:58:38.200Z,100.00
2023-11-08T05:01:43.074Z,100.00
2023-11-08T05:04:49.629Z,100.00
2023-11-08T05:07:52.576Z,100.00
2023-11-08T05:10:55.596Z,100.00
2023-11-08T05:13:58.411Z,100.00
2023-11-08T05:17:05.502Z,100.00
2023-11-08T05:20:12.502Z,100.00
2023-11-08T05:23:15.305Z,100.00
2023-11-08T05:26:18.221Z,100.00
2023-11-08T05:29:21.250Z,100.00
2023-11-08T05:32:25.891Z,100.00
2023-11-08T05:35:28.600Z,100.00
2023-11-08T05:38:31.427Z,100.00
2023-11-08T05:41:34.253Z,100.00
2023-11-08T05:44:37.130Z,100.00
2023-11-08T05:47:39.958Z,100.00
2023-11-08T05:50:44.788Z,100.00
2023-11-08T05:53:48.528Z,100.00
2023-11-08T05:56:57.297Z,100.00
2023-11-08T06:00:08.909Z,100.00
2023-11-08T06:03:12.231Z,100.00
2023-11-08T06:06:14.991Z,100.00
2023-11-08T06:09:20.450Z,100.00
2023-11-08T06:12:23.288Z,100.00
2023-11-08T06:15:27.703Z,100.00
2023-11-08T06:18:32.611Z,100.00
2023-11-08T06:21:35.868Z,100.00
2023-11-08T06:24:42.022Z,100.00
2023-11-08T06:27:44.991Z,100.00
2023-11-08T06:30:49.008Z,100.00
2023-11-08T06:33:51.981Z,100.00
2023-11-08T06:36:54.820Z,100.00
2023-11-08T06:39:58.487Z,100.00
2023-11-08T06:43:01.630Z,100.00
2023-11-08T06:46:04.639Z,100.00
2023-11-08T06:49:13.066Z,100.00
2023-11-08T06:52:17.043Z,100.00
2023-11-08T06:55:27.880Z,100.00
2023-11-08T06:58:38.610Z,100.00
2023-11-08T07:01:42.891Z,100.00
2023-11-08T07:04:45.807Z,100.00
2023-11-08T07:07:49.182Z,100.00
2023-11-08T07:10:53.211Z,100.00
2023-11-08T07:13:56.467Z,100.00
2023-11-08T07:17:02.111Z,100.00
2023-11-08T07:20:09.072Z,100.00
2023-11-08T07:23:12.458Z,100.00
2023-11-08T07:26:17.319Z,100.00
2023-11-08T07:29:21.220Z,100.00
2023-11-08T07:32:27.059Z,100.00
2023-11-08T07:35:30.571Z,100.00
2023-11-08T07:38:34.164Z,100.00
2023-11-08T07:41:37.022Z,100.00
2023-11-08T07:44:39.980Z,100.00
2023-11-08T07:47:42.908Z,100.00
2023-11-08T07:50:45.934Z,100.00
2023-11-08T07:53:48.844Z,100.00
2023-11-08T07:56:51.638Z,100.00
2023-11-08T07:59:54.590Z,100.00
2023-11-08T08:02:58.668Z,100.00
2023-11-08T08:06:01.551Z,100.00
2023-11-08T08:09:04.703Z,100.00
2023-11-08T08:12:08.914Z,100.00
2023-11-08T08:15:11.761Z,100.00
2023-11-08T08:18:15.597Z,100.00
2023-11-08T08:21:19.392Z,100.00
2023-11-08T08:24:22.627Z,100.00
2023-11-08T08:27:25.529Z,100.00
2023-11-08T08:30:31.419Z,100.00
2023-11-08T08:33:35.521Z,100.00
2023-11-08T08:36:38.415Z,100.00
2023-11-08T08:39:41.255Z,100.00
2023-11-08T08:42:44.756Z,100.00
2023-11-08T08:45:48.925Z,100.00
2023-11-08T08:48:52.785Z,97.76
2023-11-08T08:51:59.256Z,96.36
2023-11-08T08:55:02.146Z,96.81
2023-11-08T08:58:06.032Z,99.30
2023-11-08T09:01:12.397Z,94.05
2023-11-08T09:04:15.242Z,94.00
2023-11-08T09:07:21.362Z,93.39
2023-11-08T09:10:25.020Z,91.82
2023-11-08T09:13:27.826Z,90.53
2023-11-08T09:16:36.213Z,89.97
2023-11-08T09:19:42.081Z,91.93
2023-11-08T09:22:45.615Z,90.92
2023-11-08T09:25:49.840Z,90.19
2023-11-08T09:28:52.587Z,86.84
2023-11-08T09:31:57.482Z,82.60
2023-11-08T09:35:00.394Z,81.07
2023-11-08T09:38:03.227Z,81.46
2023-11-08T09:41:06.625Z,80.11
2023-11-08T09:44:09.999Z,79.98
2023-11-08T09:47:13.242Z,76.26
2023-11-08T09:50:16.613Z,74.87
2023-11-08T09:53:19.870Z,75.53
2023-11-08T09:56:23.288Z,71.40
2023-11-08T09:59:28.368Z,72.70
2023-11-08T10:02:31.411Z,69.39
2023-11-08T10:05:39.064Z,68.75
2023-11-08T10:08:44.039Z,69.38
2023-11-08T10:11:49.666Z,68.87
2023-11-08T10:15:00.925Z,67.99
2023-11-08T10:19:32.411Z,66.49
2023-11-08T10:21:32.992Z,67.01
2023-11-08T10:24:56.714Z,65.02
2023-11-08T10:28:07.333Z,64.17
2023-11-08T10:31:34.353Z,63.02
2023-11-08T10:34:37.149Z,62.79
2023-11-08T10:37:40.425Z,62.32
2023-11-08T10:40:46.468Z,61.30
2023-11-08T10:43:49.946Z,59.83
2023-11-08T10:47:00.907Z,59.74
2023-11-08T10:50:07.323Z,57.75
2023-11-08T10:53:10.170Z,61.49
2023-11-08T10:56:13.014Z,60.37
2023-11-08T10:59:19.085Z,58.27
2023-11-08T11:02:30.144Z,58.36
2023-11-08T11:05:35.843Z,59.79
2023-11-08T11:08:44.676Z,58.18
2023-11-08T11:11:54.064Z,58.55
2023-11-08T11:14:57.842Z,58.32
2023-11-08T11:18:02.096Z,56.42
2023-11-08T11:21:40.873Z,55.09
2023-11-08T11:24:46.670Z,54.75
2023-11-08T11:27:49.648Z,53.68
2023-11-08T11:30:52.431Z,56.85
2023-11-08T11:33:55.318Z,56.32
2023-11-08T11:37:19.973Z,54.23
2023-11-08T11:40:23.533Z,55.67
2023-11-08T11:43:32.602Z,58.15
2023-11-08T11:46:35.944Z,57.09
2023-11-08T11:49:40.063Z,54.99
2023-11-08T11:52:44.226Z,53.96
2023-11-08T11:55:47.138Z,51.57
2023-11-08T11:58:51.725Z,50.21
2023-11-08T12:01:55.101Z,49.23
2023-11-08T12:04:59.804Z,50.00
2023-11-08T12:08:04.663Z,49.71
2023-11-08T12:11:17.953Z,49.31
2023-11-08T12:14:24.020Z,48.44
2023-11-08T12:17:28.151Z,49.13
2023-11-08T12:20:34.685Z,47.72
2023-11-08T12:23:38.626Z,47.10
2023-11-08T12:26:50.083Z,46.57
2023-11-08T12:29:52.833Z,45.86
2023-11-08T12:32:58.198Z,46.65
2023-11-08T12:36:03.402Z,44.45
2023-11-08T12:39:17.711Z,44.49
2023-11-08T12:42:20.752Z,45.25
2023-11-08T12:46:34.114Z,43.16
2023-11-08T12:48:58.190Z,43.35
2023-11-08T12:52:05.588Z,45.00
2023-11-08T12:55:08.960Z,43.96
2023-11-08T12:58:29.294Z,43.89
2023-11-08T13:01:32.062Z,43.19
2023-11-08T13:04:35.111Z,43.00
2023-11-08T13:07:40.335Z,44.34
2023-11-08T13:10:43.174Z,43.64
2023-11-08T13:13:46.434Z,43.91
2023-11-08T13:16:49.141Z,44.77
2023-11-08T13:19:52.017Z,47.40
2023-11-08T13:22:55.076Z,48.80
2023-11-08T13:25:58.145Z,49.98
2023-11-08T13:29:00.892Z,51.98
2023-11-08T13:32:04.866Z,52.61
2023-11-08T13:35:13.140Z,52.81
2023-11-08T13:38:18.491Z,52.93
2023-11-08T13:41:21.570Z,50.76
2023-11-08T13:44:24.288Z,49.19
2023-11-08T13:47:27.560Z,49.42
2023-11-08T13:50:30.483Z,49.24
2023-11-08T13:53:37.445Z,49.05
2023-11-08T13:56:40.286Z,47.69
2023-11-08T13:59:52.043Z,47.41
2023-11-08T14:02:59.189Z,45.69
2023-11-08T14:06:02.089Z,46.01
2023-11-08T14:09:05.840Z,45.29
2023-11-08T14:12:10.605Z,44.48
2023-11-08T14:15:13.890Z,45.17
2023-11-08T14:18:16.822Z,44.89
2023-11-08T14:21:19.521Z,46.09
2023-11-08T14:24:22.364Z,46.15
2023-11-08T14:27:25.053Z,47.98
2023-11-08T14:30:27.912Z,49.43
2023-11-08T14:33:30.834Z,49.48
2023-11-08T14:36:55.412Z,49.32
2023-11-08T14:39:56.465Z,49.75
2023-11-08T14:43:01.661Z,50.40
2023-11-08T14:46:04.887Z,51.67
2023-11-08T14:49:08.038Z,52.99
2023-11-08T14:52:11.063Z,54.72
2023-11-08T14:55:13.957Z,56.58
2023-11-08T14:58:16.870Z,57.99
2023-11-08T15:01:19.967Z,58.86
2023-11-08T15:04:23.818Z,59.52
2023-11-08T15:09:41.541Z,60.19
2023-11-08T15:10:50.053Z,60.77
2023-11-08T15:13:53.299Z,61.68
2023-11-08T15:16:56.069Z,63.04
2023-11-08T15:19:58.858Z,65.27
2023-11-08T15:23:01.740Z,65.33
2023-11-08T15:26:05.164Z,69.35
2023-11-08T15:29:08.227Z,72.58
2023-11-08T15:32:13.731Z,73.51
2023-11-08T15:35:16.750Z,75.67
2023-11-08T15:38:20.238Z,79.75
2023-11-08T15:41:23.849Z,81.90
2023-11-08T15:44:28.782Z,85.02
2023-11-08T15:47:31.903Z,87.18
2023-11-08T15:50:38.465Z,87.27
2023-11-08T15:53:41.278Z,87.90
2023-11-08T15:56:44.641Z,91.02
2023-11-08T15:59:47.864Z,91.18
2023-11-08T16:02:51.501Z,92.15
2023-11-08T16:05:58.201Z,93.25
2023-11-08T16:09:01.556Z,93.84
2023-11-08T16:12:05.055Z,95.16
2023-11-08T16:15:08.787Z,95.05
2023-11-08T16:18:11.990Z,96.97
2023-11-08T16:21:14.753Z,97.26
2023-11-08T16:24:18.298Z,97.65
2023-11-08T16:27:21.440Z,98.59
2023-11-08T16:30:59.376Z,100.00
2023-11-08T16:33:47.580Z,99.98
2023-11-08T16:36:50.473Z,100.00
2023-11-08T16:39:53.827Z,100.00
2023-11-08T16:42:58.175Z,100.00
2023-11-08T16:46:01.029Z,100.00
2023-11-08T16:49:03.965Z,100.00
2023-11-08T16:52:07.099Z,100.00
2023-11-08T16:55:12.236Z,100.00
2023-11-08T16:58:19.255Z,100.00
2023-11-08T17:01:26.458Z,100.00
2023-11-08T17:04:29.823Z,100.00
2023-11-08T17:07:32.765Z,100.00
2023-11-08T17:10:35.665Z,100.00
2023-11-08T17:13:38.520Z,100.00
2023-11-08T17:16:41.586Z,100.00
2023-11-08T17:19:45.000Z,100.00
2023-11-08T17:22:47.972Z,100.00
2023-11-08T17:25:50.985Z,100.00
2023-11-08T17:28:54.581Z,100.00
2023-11-08T17:32:00.256Z,100.00
2023-11-08T17:35:05.312Z,100.00
2023-11-08T17:38:08.349Z,100.00
2023-11-08T17:41:11.607Z,100.00
2023-11-08T17:44:15.206Z,100.00
2023-11-08T17:47:17.882Z,100.00
2023-11-08T17:50:20.686Z,100.00
2023-11-08T17:53:23.534Z,100.00
2023-11-08T17:56:27.192Z,100.00
2023-11-08T17:59:29.948Z,100.00
2023-11-08T18:02:35.137Z,100.00
2023-11-08T18:05:37.961Z,100.00
2023-11-08T18:08:44.735Z,100.00
2023-11-08T18:11:53.854Z,100.00
2023-11-08T18:14:56.616Z,100.00
2023-11-08T18:17:59.455Z,100.00
2023-11-08T18:21:02.745Z,100.00
2023-11-08T18:24:06.130Z,100.00
2023-11-08T18:27:09.668Z,100.00
2023-11-08T18:30:13.681Z,100.00
2023-11-08T18:33:21.941Z,100.00
2023-11-08T18:36:28.249Z,100.00
2023-11-08T18:39:34.881Z,100.00
2023-11-08T18:42:40.436Z,100.00
2023-11-08T18:45:43.598Z,100.00
2023-11-08T18:48:46.447Z,100.00
2023-11-08T18:51:49.441Z,100.00
2023-11-08T18:54:52.723Z,100.00
2023-11-08T18:57:56.037Z,100.00
2023-11-08T19:00:59.934Z,100.00
2023-11-08T19:04:05.545Z,100.00
2023-11-08T19:07:08.404Z,100.00
2023-11-08T19:10:12.253Z,100.00
2023-11-08T19:13:15.202Z,100.00
2023-11-08T19:16:18.246Z,100.00
2023-11-08T19:19:21.232Z,100.00
2023-11-08T19:22:24.091Z,100.00
2023-11-08T19:25:27.706Z,100.00
2023-11-08T19:28:33.601Z,100.00
2023-11-08T19:31:37.064Z,100.00
2023-11-08T19:34:40.639Z,100.00
2023-11-08T19:37:43.879Z,100.00
2023-11-08T19:40:46.977Z,100.00
2023-11-08T19:43:50.354Z,100.00
2023-11-08T19:46:53.523Z,100.00
2023-11-08T19:49:57.702Z,100.00
2023-11-08T19:53:01.044Z,100.00
2023-11-08T19:56:07.279Z,100.00
2023-11-08T19:59:11.435Z,100.00
2023-11-08T20:02:18.414Z,100.00
2023-11-08T20:05:22.017Z,100.00
2023-11-08T20:08:28.168Z,100.00
2023-11-08T20:11:32.832Z,100.00
2023-11-08T20:14:35.852Z,100.00
2023-11-08T20:17:44.378Z,100.00
2023-11-08T20:20:51.849Z,100.00
2023-11-08T20:23:54.907Z,100.00
2023-11-08T20:26:58.071Z,100.00
2023-11-08T20:30:03.466Z,100.00
2023-11-08T20:33:10.118Z,100.00
2023-11-08T20:36:13.195Z,100.00
2023-11-08T20:39:17.676Z,100.00
2023-11-08T20:42:21.356Z,100.00
2023-11-08T20:45:27.268Z,100.00
2023-11-08T20:48:30.592Z,100.00
2023-11-08T20:51:33.737Z,100.00
2023-11-08T20:54:43.248Z,100.00
2023-11-08T20:57:46.593Z,100.00
2023-11-08T21:00:49.623Z,100.00
2023-11-08T21:03:52.723Z,100.00
2023-11-08T21:06:55.795Z,100.00
2023-11-08T21:09:58.559Z,100.00
2023-11-08T21:13:01.621Z,100.00
2023-11-08T21:16:06.600Z,100.00
2023-11-08T21:19:10.745Z,100.00
2023-11-08T21:22:13.811Z,100.00
2023-11-08T21:25:16.628Z,100.00
2023-11-08T21:28:19.485Z,100.00
2023-11-08T21:31:23.390Z,100.00
2023-11-08T21:34:26.366Z,100.00
2023-11-08T21:37:29.077Z,100.00
2023-11-08T21:40:31.954Z,100.00
2023-11-08T21:43:37.679Z,100.00
2023-11-08T21:46:43.389Z,100.00
2023-11-08T21:49:46.305Z,100.00
2023-11-08T21:52:49.174Z,100.00
2023-11-08T21:55:51.822Z,100.00
2023-11-08T21:58:54.940Z,100.00
2023-11-08T22:01:57.620Z,100.00
2023-11-08T22:05:01.195Z,100.00
2023-11-08T22:08:03.961Z,100.00
2023-11-08T22:11:06.880Z,100.00
2023-11-08T22:14:09.679Z,100.00
2023-11-08T22:17:13.155Z,100.00
2023-11-08T22:20:16.394Z,100.00
2023-11-08T22:23:20.708Z,100.00
2023-11-08T22:26:23.663Z,100.00
2023-11-08T22:29:26.645Z,100.00
2023-11-08T22:32:29.526Z,100.00
2023-11-08T22:35:32.285Z,100.00
2023-11-08T22:38:35.647Z,100.00
2023-11-08T22:41:39.385Z,100.00
2023-11-08T22:44:42.101Z,100.00
2023-11-08T22:47:44.942Z,100.00
2023-11-08T22:50:47.761Z,100.00
2023-11-08T22:53:51.526Z,100.00
2023-11-08T22:56:54.297Z,100.00
2023-11-08T22:59:57.031Z,100.00
2023-11-08T23:03:03.444Z,100.00
2023-11-08T23:06:07.225Z,100.00
2023-11-08T23:09:09.929Z,100.00
2023-11-08T23:12:13.079Z,100.00
2023-11-08T23:15:15.901Z,100.00
2023-11-08T23:18:19.083Z,100.00
2023-11-08T23:21:22.602Z,100.00
2023-11-08T23:24:25.377Z,100.00
2023-11-08T23:27:31.126Z,100.00
2023-11-08T23:30:33.832Z,100.00
2023-11-08T23:33:37.052Z,100.00
2023-11-08T23:36:39.919Z,100.00
2023-11-08T23:39:42.691Z,100.00
2023-11-08T23:42:45.794Z,100.00
2023-11-08T23:45:49.048Z,100.00
2023-11-08T23:48:52.336Z,100.00
2023-11-08T23:51:55.130Z,100.00
2023-11-08T23:54:58.323Z,100.00
2023-11-08T23:58:01.108Z,100.00
